This is the latest recevied weather packets stored in our database for station/object HS3PQJ-1. If no packets are shown the sender has not sent any weather packets the latest 10 day(s).
| Time | Temp. | Humidity | Pressure | Rain* | Wind** | Luminosity | Snow |
|---|---|---|---|---|---|---|---|
| 1777874241 | 33.89° C | 92% | - | - | - | 0 W/m² | - |
| 1777873324 | 33.89° C | 91% | - | - | - | 0 W/m² | - |
| 1777872410 | 33.33° C | 91% | - | - | - | 0 W/m² | - |
| 1777871496 | 33.33° C | 91% | - | - | - | 0 W/m² | - |
| 1777870582 | 33.33° C | 92% | - | - | - | 0 W/m² | - |
| 1777869668 | 33.33° C | 92% | - | - | - | 0 W/m² | - |
| 1777868754 | 33.33° C | 93% | - | - | - | 0 W/m² | - |
| 1777867840 | 33.33° C | 92% | - | - | - | 0 W/m² | - |
| 1777866926 | 32.78° C | 93% | - | - | - | 0 W/m² | - |
| 1777844899 | 29.44° C | 95% | - | - | - | 0 W/m² | - |
| 1777843983 | 29.44° C | 95% | - | - | - | 0 W/m² | - |
| 1777843066 | 29.44° C | 95% | - | - | - | 0 W/m² | - |
| 1777842149 | 30° C | 95% | - | - | - | 0 W/m² | - |
| 1777840321 | 30° C | 95% | - | - | - | 0 W/m² | - |
| 1777839408 | 30° C | 95% | - | - | - | 0 W/m² | - |
| 1777838494 | 30° C | 95% | - | - | - | 0 W/m² | - |
| 1777836666 | 30° C | 95% | - | - | - | 0 W/m² | - |
| 1777835752 | 30.56° C | 95% | - | - | - | 0 W/m² | - |
| 1777834838 | 30.56° C | 94% | - | - | - | 0 W/m² | - |
| 1777822024 | 32.22° C | 93% | - | - | - | 0 W/m² | - |
| 1777820194 | 32.22° C | 93% | - | - | - | 0 W/m² | - |
| 1777819280 | 32.78° C | 93% | - | - | - | 0 W/m² | - |
| 1777817452 | 32.78° C | 93% | - | - | - | 0 W/m² | - |
| 1777811874 | 34.44° C | 89% | - | - | - | 0 W/m² | - |
| 1777810046 | 35° C | 87% | - | - | - | 0 W/m² | - |
* Rain since midnight (hover to see other rain measurements)
** Current wind speed in m/s (hover to see current wind gust speed)